sensor_id;sensor_type;location;lat;lon;timestamp;pressure;altitude;pressure_sealevel;temperature;humidity
7200;BME280;3641;49.082;8.200;2023-04-15T00:01:51;99403.19;;;5.96;75.17
7200;BME280;3641;49.082;8.200;2023-04-15T00:04:17;99399.25;;;6.30;70.45
7200;BME280;3641;49.082;8.200;2023-04-15T00:06:49;99395.16;;;6.34;72.62
7200;BME280;3641;49.082;8.200;2023-04-15T00:09:17;99400.38;;;6.59;67.54
7200;BME280;3641;49.082;8.200;2023-04-15T00:11:43;99399.31;;;6.45;67.23
7200;BME280;3641;49.082;8.200;2023-04-15T00:14:11;99403.53;;;6.25;71.97
7200;BME280;3641;49.082;8.200;2023-04-15T00:16:38;99404.38;;;6.48;68.28
7200;BME280;3641;49.082;8.200;2023-04-15T00:19:04;99402.75;;;6.39;68.82
7200;BME280;3641;49.082;8.200;2023-04-15T00:21:30;99401.94;;;6.07;72.05
7200;BME280;3641;49.082;8.200;2023-04-15T00:23:57;99394.84;;;6.29;71.80
7200;BME280;3641;49.082;8.200;2023-04-15T00:26:25;99398.09;;;6.48;66.06
7200;BME280;3641;49.082;8.200;2023-04-15T00:28:52;99395.31;;;6.33;68.18
7200;BME280;3641;49.082;8.200;2023-04-15T00:31:18;99396.66;;;6.14;69.66
7200;BME280;3641;49.082;8.200;2023-04-15T00:33:45;99391.31;;;6.29;67.11
7200;BME280;3641;49.082;8.200;2023-04-15T00:36:11;99393.69;;;6.24;67.95
7200;BME280;3641;49.082;8.200;2023-04-15T00:38:37;99389.69;;;6.20;68.15
7200;BME280;3641;49.082;8.200;2023-04-15T00:41:04;99387.81;;;6.20;67.67
7200;BME280;3641;49.082;8.200;2023-04-15T00:43:32;99390.47;;;6.05;69.46
7200;BME280;3641;49.082;8.200;2023-04-15T00:45:59;99388.63;;;6.21;66.19
7200;BME280;3641;49.082;8.200;2023-04-15T00:48:27;99387.34;;;6.16;67.04
7200;BME280;3641;49.082;8.200;2023-04-15T00:50:53;99380.84;;;6.26;65.45
7200;BME280;3641;49.082;8.200;2023-04-15T00:53:20;99386.25;;;6.26;67.15
7200;BME280;3641;49.082;8.200;2023-04-15T00:55:46;99382.56;;;5.16;75.99
7200;BME280;3641;49.082;8.200;2023-04-15T00:58:13;99391.16;;;4.39;80.77
7200;BME280;3641;49.082;8.200;2023-04-15T01:00:42;99388.13;;;4.42;81.63
7200;BME280;3641;49.082;8.200;2023-04-15T01:03:08;99389.78;;;4.68;80.73
7200;BME280;3641;49.082;8.200;2023-04-15T01:05:35;99377.56;;;5.44;73.57
7200;BME280;3641;49.082;8.200;2023-04-15T01:08:02;99378.13;;;4.76;79.17
7200;BME280;3641;49.082;8.200;2023-04-15T01:10:30;99383.03;;;4.55;80.24
7200;BME280;3641;49.082;8.200;2023-04-15T01:12:56;99381.00;;;4.58;80.84
7200;BME280;3641;49.082;8.200;2023-04-15T01:15:23;99378.81;;;4.45;80.66
7200;BME280;3641;49.082;8.200;2023-04-15T01:17:51;99372.94;;;4.33;81.35
7200;BME280;3641;49.082;8.200;2023-04-15T01:20:18;99376.44;;;4.50;80.79
7200;BME280;3641;49.082;8.200;2023-04-15T01:22:45;99383.72;;;4.41;81.40
7200;BME280;3641;49.082;8.200;2023-04-15T01:25:16;99372.31;;;5.03;73.12
7200;BME280;3641;49.082;8.200;2023-04-15T01:27:44;99372.56;;;5.33;71.65
7200;BME280;3641;49.082;8.200;2023-04-15T01:30:11;99371.16;;;5.37;71.73
7200;BME280;3641;49.082;8.200;2023-04-15T01:32:38;99370.06;;;5.55;69.16
7200;BME280;3641;49.082;8.200;2023-04-15T01:35:05;99368.34;;;5.62;68.40
7200;BME280;3641;49.082;8.200;2023-04-15T01:37:32;99363.91;;;5.69;67.99
7200;BME280;3641;49.082;8.200;2023-04-15T01:39:59;99378.44;;;5.76;67.74
7200;BME280;3641;49.082;8.200;2023-04-15T01:42:26;99373.91;;;5.69;68.25
7200;BME280;3641;49.082;8.200;2023-04-15T01:44:54;99373.06;;;5.68;68.95
7200;BME280;3641;49.082;8.200;2023-04-15T01:47:20;99370.53;;;5.58;69.25
7200;BME280;3641;49.082;8.200;2023-04-15T01:49:47;99379.13;;;5.70;67.44
7200;BME280;3641;49.082;8.200;2023-04-15T01:52:14;99380.44;;;5.43;71.36
7200;BME280;3641;49.082;8.200;2023-04-15T01:54:40;99378.41;;;5.45;69.60
7200;BME280;3641;49.082;8.200;2023-04-15T01:57:07;99375.69;;;5.45;69.03
7200;BME280;3641;49.082;8.200;2023-04-15T01:59:33;99376.69;;;5.52;67.38
7200;BME280;3641;49.082;8.200;2023-04-15T02:02:01;99381.75;;;5.55;67.31
7200;BME280;3641;49.082;8.200;2023-04-15T02:04:28;99368.22;;;5.55;67.91
7200;BME280;3641;49.082;8.200;2023-04-15T02:06:55;99379.22;;;5.54;68.57
7200;BME280;3641;49.082;8.200;2023-04-15T02:09:21;99379.94;;;5.48;69.24
7200;BME280;3641;49.082;8.200;2023-04-15T02:11:48;99383.84;;;5.37;69.23
7200;BME280;3641;49.082;8.200;2023-04-15T02:14:14;99378.34;;;5.22;69.18
7200;BME280;3641;49.082;8.200;2023-04-15T02:16:41;99385.91;;;5.35;69.07
7200;BME280;3641;49.082;8.200;2023-04-15T02:19:09;99395.00;;;4.86;75.90
7200;BME280;3641;49.082;8.200;2023-04-15T02:21:35;99390.56;;;5.09;74.70
7200;BME280;3641;49.082;8.200;2023-04-15T02:24:02;99394.06;;;5.26;70.58
7200;BME280;3641;49.082;8.200;2023-04-15T02:26:28;99399.41;;;4.13;79.71
7200;BME280;3641;49.082;8.200;2023-04-15T02:28:56;99397.88;;;4.84;74.68
7200;BME280;3641;49.082;8.200;2023-04-15T02:31:23;99386.22;;;4.84;74.95
7200;BME280;3641;49.082;8.200;2023-04-15T02:33:50;99394.34;;;4.67;75.23
7200;BME280;3641;49.082;8.200;2023-04-15T02:36:18;99385.09;;;4.53;73.92
7200;BME280;3641;49.082;8.200;2023-04-15T02:38:45;99390.22;;;4.96;70.01
7200;BME280;3641;49.082;8.200;2023-04-15T02:41:12;99382.25;;;5.11;69.22
7200;BME280;3641;49.082;8.200;2023-04-15T02:43:38;99390.72;;;5.08;70.79
7200;BME280;3641;49.082;8.200;2023-04-15T02:46:05;99395.72;;;4.63;76.25
7200;BME280;3641;49.082;8.200;2023-04-15T02:48:31;99390.81;;;4.50;77.54
7200;BME280;3641;49.082;8.200;2023-04-15T02:51:11;99391.28;;;4.87;75.32
7200;BME280;3641;49.082;8.200;2023-04-15T02:53:39;99395.47;;;4.98;74.05
7200;BME280;3641;49.082;8.200;2023-04-15T02:56:06;99400.22;;;4.87;72.29
7200;BME280;3641;49.082;8.200;2023-04-15T02:58:33;99397.56;;;4.38;77.62
7200;BME280;3641;49.082;8.200;2023-04-15T03:01:00;99395.03;;;4.28;76.66
7200;BME280;3641;49.082;8.200;2023-04-15T03:03:27;99398.44;;;4.47;76.55
7200;BME280;3641;49.082;8.200;2023-04-15T03:05:53;99390.09;;;3.91;80.61
7200;BME280;3641;49.082;8.200;2023-04-15T03:08:20;99393.53;;;4.42;76.79
7200;BME280;3641;49.082;8.200;2023-04-15T03:10:47;99390.63;;;4.77;73.90
7200;BME280;3641;49.082;8.200;2023-04-15T03:13:16;99394.50;;;4.90;71.91
7200;BME280;3641;49.082;8.200;2023-04-15T03:15:43;99405.63;;;4.96;69.52
7200;BME280;3641;49.082;8.200;2023-04-15T03:18:10;99398.69;;;5.01;69.27
7200;BME280;3641;49.082;8.200;2023-04-15T03:20:36;99395.84;;;4.78;71.23
7200;BME280;3641;49.082;8.200;2023-04-15T03:23:03;99398.22;;;4.81;71.29
7200;BME280;3641;49.082;8.200;2023-04-15T03:25:29;99395.66;;;5.04;71.17
7200;BME280;3641;49.082;8.200;2023-04-15T03:27:58;99402.97;;;4.79;73.21
7200;BME280;3641;49.082;8.200;2023-04-15T03:30:25;99398.03;;;4.91;71.87
7200;BME280;3641;49.082;8.200;2023-04-15T03:32:52;99400.91;;;4.89;71.06
7200;BME280;3641;49.082;8.200;2023-04-15T03:35:18;99389.19;;;5.05;69.97
7200;BME280;3641;49.082;8.200;2023-04-15T03:37:45;99392.59;;;4.99;71.60
7200;BME280;3641;49.082;8.200;2023-04-15T03:40:13;99398.34;;;4.96;70.16
7200;BME280;3641;49.082;8.200;2023-04-15T03:42:40;99391.28;;;4.95;71.58
7200;BME280;3641;49.082;8.200;2023-04-15T03:45:08;99390.66;;;4.60;76.35
7200;BME280;3641;49.082;8.200;2023-04-15T03:47:35;99402.97;;;4.13;78.97
7200;BME280;3641;49.082;8.200;2023-04-15T03:50:01;99401.66;;;4.42;77.30
7200;BME280;3641;49.082;8.200;2023-04-15T03:52:28;99407.84;;;4.02;79.56
7200;BME280;3641;49.082;8.200;2023-04-15T03:54:55;99412.13;;;3.53;81.53
7200;BME280;3641;49.082;8.200;2023-04-15T03:57:22;99406.13;;;3.33;82.84
7200;BME280;3641;49.082;8.200;2023-04-15T03:59:48;99398.47;;;3.55;82.68
7200;BME280;3641;49.082;8.200;2023-04-15T04:02:16;99396.03;;;4.35;74.47
7200;BME280;3641;49.082;8.200;2023-04-15T04:04:42;99390.31;;;4.30;74.53
7200;BME280;3641;49.082;8.200;2023-04-15T04:07:14;99400.34;;;3.62;81.45
7200;BME280;3641;49.082;8.200;2023-04-15T04:09:40;99387.94;;;3.35;83.05
7200;BME280;3641;49.082;8.200;2023-04-15T04:12:07;99388.75;;;3.78;80.72
7200;BME280;3641;49.082;8.200;2023-04-15T04:14:34;99390.47;;;4.12;77.71
7200;BME280;3641;49.082;8.200;2023-04-15T04:17:00;99391.97;;;4.07;77.97
7200;BME280;3641;49.082;8.200;2023-04-15T04:19:28;99394.88;;;4.38;75.37
7200;BME280;3641;49.082;8.200;2023-04-15T04:21:55;99394.38;;;4.34;75.99
7200;BME280;3641;49.082;8.200;2023-04-15T04:24:21;99407.88;;;4.18;78.78
7200;BME280;3641;49.082;8.200;2023-04-15T04:26:48;99407.72;;;4.44;73.94
7200;BME280;3641;49.082;8.200;2023-04-15T04:29:14;99406.72;;;4.45;73.19
7200;BME280;3641;49.082;8.200;2023-04-15T04:31:41;99401.78;;;4.16;76.67
7200;BME280;3641;49.082;8.200;2023-04-15T04:34:07;99413.63;;;4.31;74.26
7200;BME280;3641;49.082;8.200;2023-04-15T04:36:35;99419.00;;;4.56;71.41
7200;BME280;3641;49.082;8.200;2023-04-15T04:39:02;99427.81;;;4.33;75.86
7200;BME280;3641;49.082;8.200;2023-04-15T04:41:28;99428.47;;;3.52;79.86
7200;BME280;3641;49.082;8.200;2023-04-15T04:43:55;99425.13;;;2.89;83.15
7200;BME280;3641;49.082;8.200;2023-04-15T04:46:21;99427.72;;;2.81;84.41
7200;BME280;3641;49.082;8.200;2023-04-15T04:48:47;99423.00;;;3.35;81.07
7200;BME280;3641;49.082;8.200;2023-04-15T04:51:14;99426.88;;;3.75;78.68
7200;BME280;3641;49.082;8.200;2023-04-15T04:53:42;99432.63;;;3.03;82.58
7200;BME280;3641;49.082;8.200;2023-04-15T04:56:08;99432.09;;;3.34;80.68
7200;BME280;3641;49.082;8.200;2023-04-15T04:58:35;99425.34;;;3.89;77.65
7200;BME280;3641;49.082;8.200;2023-04-15T05:01:02;99432.41;;;3.66;79.63
7200;BME280;3641;49.082;8.200;2023-04-15T05:03:28;99434.81;;;3.42;81.13
7200;BME280;3641;49.082;8.200;2023-04-15T05:05:55;99432.97;;;3.43;81.78
7200;BME280;3641;49.082;8.200;2023-04-15T05:08:21;99425.78;;;3.60;80.79
7200;BME280;3641;49.082;8.200;2023-04-15T05:10:49;99434.53;;;4.13;73.94
7200;BME280;3641;49.082;8.200;2023-04-15T05:13:16;99428.84;;;4.32;72.74
7200;BME280;3641;49.082;8.200;2023-04-15T05:15:42;99431.16;;;4.27;74.11
7200;BME280;3641;49.082;8.200;2023-04-15T05:18:09;99433.88;;;4.35;74.36
7200;BME280;3641;49.082;8.200;2023-04-15T05:20:36;99438.44;;;4.51;71.00
7200;BME280;3641;49.082;8.200;2023-04-15T05:23:02;99442.50;;;4.55;71.63
7200;BME280;3641;49.082;8.200;2023-04-15T05:25:28;99442.63;;;4.21;73.34
7200;BME280;3641;49.082;8.200;2023-04-15T05:27:57;99439.75;;;4.06;75.98
7200;BME280;3641;49.082;8.200;2023-04-15T05:30:23;99441.78;;;4.04;74.73
7200;BME280;3641;49.082;8.200;2023-04-15T05:32:50;99450.28;;;4.50;71.24
7200;BME280;3641;49.082;8.200;2023-04-15T05:35:16;99444.53;;;4.62;70.61
7200;BME280;3641;49.082;8.200;2023-04-15T05:37:43;99446.03;;;4.56;73.22
7200;BME280;3641;49.082;8.200;2023-04-15T05:40:10;99443.53;;;4.63;72.29
7200;BME280;3641;49.082;8.200;2023-04-15T05:42:36;99442.16;;;4.75;73.81
7200;BME280;3641;49.082;8.200;2023-04-15T05:45:06;99443.34;;;4.81;76.38
7200;BME280;3641;49.082;8.200;2023-04-15T05:47:34;99445.88;;;4.90;77.02
7200;BME280;3641;49.082;8.200;2023-04-15T05:50:00;99444.97;;;5.15;74.01
7200;BME280;3641;49.082;8.200;2023-04-15T05:52:27;99445.09;;;5.30;71.52
7200;BME280;3641;49.082;8.200;2023-04-15T05:54:53;99448.69;;;5.22;73.13
7200;BME280;3641;49.082;8.200;2023-04-15T05:57:20;99453.09;;;5.15;74.81
7200;BME280;3641;49.082;8.200;2023-04-15T05:59:47;99454.56;;;5.34;72.13
7200;BME280;3641;49.082;8.200;2023-04-15T06:02:17;99465.22;;;5.35;73.39
7200;BME280;3641;49.082;8.200;2023-04-15T06:04:43;99457.75;;;5.37;74.56
7200;BME280;3641;49.082;8.200;2023-04-15T06:07:09;99458.75;;;5.44;71.07
7200;BME280;3641;49.082;8.200;2023-04-15T06:09:36;99455.84;;;5.54;72.31
7200;BME280;3641;49.082;8.200;2023-04-15T06:12:02;99462.66;;;5.42;76.59
7200;BME280;3641;49.082;8.200;2023-04-15T06:14:30;99462.41;;;5.60;73.58
7200;BME280;3641;49.082;8.200;2023-04-15T06:16:57;99462.78;;;5.57;73.36
7200;BME280;3641;49.082;8.200;2023-04-15T06:19:24;99460.06;;;5.65;72.81
7200;BME280;3641;49.082;8.200;2023-04-15T06:21:51;99457.81;;;5.69;75.11
7200;BME280;3641;49.082;8.200;2023-04-15T06:24:17;99464.78;;;5.71;77.56
7200;BME280;3641;49.082;8.200;2023-04-15T06:26:44;99461.53;;;5.68;78.63
7200;BME280;3641;49.082;8.200;2023-04-15T06:29:10;99470.09;;;5.88;74.41
7200;BME280;3641;49.082;8.200;2023-04-15T06:31:37;99468.53;;;5.93;73.94
7200;BME280;3641;49.082;8.200;2023-04-15T06:34:03;99469.81;;;6.14;71.79
7200;BME280;3641;49.082;8.200;2023-04-15T06:36:31;99468.91;;;6.22;75.28
7200;BME280;3641;49.082;8.200;2023-04-15T06:38:58;99471.09;;;6.26;71.50
7200;BME280;3641;49.082;8.200;2023-04-15T06:41:25;99465.25;;;6.38;72.57
7200;BME280;3641;49.082;8.200;2023-04-15T06:43:52;99462.50;;;6.46;73.11
7200;BME280;3641;49.082;8.200;2023-04-15T06:46:18;99467.06;;;6.45;72.42
7200;BME280;3641;49.082;8.200;2023-04-15T06:48:45;99469.00;;;6.60;70.84
7200;BME280;3641;49.082;8.200;2023-04-15T06:51:11;99467.84;;;6.77;69.83
7200;BME280;3641;49.082;8.200;2023-04-15T06:53:39;99467.84;;;6.77;73.00
7200;BME280;3641;49.082;8.200;2023-04-15T06:56:08;99464.22;;;6.85;70.83
7200;BME280;3641;49.082;8.200;2023-04-15T06:58:34;99466.31;;;6.98;69.80
7200;BME280;3641;49.082;8.200;2023-04-15T07:01:01;99469.59;;;7.08;70.02
7200;BME280;3641;49.082;8.200;2023-04-15T07:03:28;99466.63;;;7.18;68.81
7200;BME280;3641;49.082;8.200;2023-04-15T07:05:54;99472.03;;;7.18;69.67
7200;BME280;3641;49.082;8.200;2023-04-15T07:08:21;99468.13;;;7.05;75.45
7200;BME280;3641;49.082;8.200;2023-04-15T07:10:49;99475.91;;;7.23;70.81
7200;BME280;3641;49.082;8.200;2023-04-15T07:13:16;99466.09;;;7.37;70.51
7200;BME280;3641;49.082;8.200;2023-04-15T07:15:42;99468.91;;;7.44;70.15
7200;BME280;3641;49.082;8.200;2023-04-15T07:18:09;99473.97;;;7.47;69.70
7200;BME280;3641;49.082;8.200;2023-04-15T07:20:36;99467.59;;;7.55;69.14
7200;BME280;3641;49.082;8.200;2023-04-15T07:23:02;99471.97;;;7.56;70.81
7200;BME280;3641;49.082;8.200;2023-04-15T07:25:29;99461.19;;;7.62;71.55
7200;BME280;3641;49.082;8.200;2023-04-15T07:27:57;99464.94;;;7.76;68.58
7200;BME280;3641;49.082;8.200;2023-04-15T07:30:23;99468.91;;;7.74;71.00
7200;BME280;3641;49.082;8.200;2023-04-15T07:32:50;99472.53;;;7.81;69.02
7200;BME280;3641;49.082;8.200;2023-04-15T07:35:16;99476.66;;;7.92;68.17
7200;BME280;3641;49.082;8.200;2023-04-15T07:37:45;99468.94;;;7.95;67.81
7200;BME280;3641;49.082;8.200;2023-04-15T07:40:11;99474.56;;;7.94;68.67
7200;BME280;3641;49.082;8.200;2023-04-15T07:42:39;99473.94;;;7.92;69.78
7200;BME280;3641;49.082;8.200;2023-04-15T07:45:07;99478.97;;;7.95;69.05
7200;BME280;3641;49.082;8.200;2023-04-15T07:47:34;99481.97;;;8.00;68.58
7200;BME280;3641;49.082;8.200;2023-04-15T07:50:00;99477.94;;;7.96;68.89
7200;BME280;3641;49.082;8.200;2023-04-15T07:52:27;99488.59;;;8.12;68.18
7200;BME280;3641;49.082;8.200;2023-04-15T07:54:53;99487.25;;;8.23;67.01
7200;BME280;3641;49.082;8.200;2023-04-15T07:57:20;99476.19;;;8.25;67.19
7200;BME280;3641;49.082;8.200;2023-04-15T07:59:46;99473.25;;;8.05;68.36
7200;BME280;3641;49.082;8.200;2023-04-15T08:02:14;99482.09;;;8.28;67.67
7200;BME280;3641;49.082;8.200;2023-04-15T08:04:40;99478.44;;;8.36;67.72
7200;BME280;3641;49.082;8.200;2023-04-15T08:07:07;99480.34;;;8.42;67.36
7200;BME280;3641;49.082;8.200;2023-04-15T08:09:33;99477.56;;;8.35;67.27
7200;BME280;3641;49.082;8.200;2023-04-15T08:12:00;99483.25;;;8.41;67.12
7200;BME280;3641;49.082;8.200;2023-04-15T08:14:26;99485.19;;;8.25;68.03
7200;BME280;3641;49.082;8.200;2023-04-15T08:16:53;99476.06;;;8.48;66.63
7200;BME280;3641;49.082;8.200;2023-04-15T08:19:20;99484.91;;;8.57;67.17
7200;BME280;3641;49.082;8.200;2023-04-15T08:21:48;99490.66;;;8.62;66.32
7200;BME280;3641;49.082;8.200;2023-04-15T08:24:15;99491.81;;;8.52;67.85
7200;BME280;3641;49.082;8.200;2023-04-15T08:26:41;99486.50;;;8.66;66.61
7200;BME280;3641;49.082;8.200;2023-04-15T08:29:08;99493.44;;;8.68;67.06
7200;BME280;3641;49.082;8.200;2023-04-15T08:31:34;99487.03;;;8.76;66.46
7200;BME280;3641;49.082;8.200;2023-04-15T08:34:01;99492.53;;;8.83;66.21
7200;BME280;3641;49.082;8.200;2023-04-15T08:36:29;99490.38;;;8.78;66.82
7200;BME280;3641;49.082;8.200;2023-04-15T08:38:56;99494.84;;;8.86;66.08
7200;BME280;3641;49.082;8.200;2023-04-15T08:41:24;99494.72;;;8.94;66.82
7200;BME280;3641;49.082;8.200;2023-04-15T08:43:53;99494.19;;;9.05;65.94
7200;BME280;3641;49.082;8.200;2023-04-15T08:46:20;99496.94;;;9.12;65.87
7200;BME280;3641;49.082;8.200;2023-04-15T08:48:47;99499.09;;;9.17;65.81
7200;BME280;3641;49.082;8.200;2023-04-15T08:51:14;99495.72;;;9.15;65.94
7200;BME280;3641;49.082;8.200;2023-04-15T08:53:43;99491.03;;;8.80;67.56
7200;BME280;3641;49.082;8.200;2023-04-15T08:56:11;99493.97;;;9.07;66.98
7200;BME280;3641;49.082;8.200;2023-04-15T08:58:39;99498.72;;;9.26;66.24
7200;BME280;3641;49.082;8.200;2023-04-15T09:01:06;99498.25;;;9.16;65.27
7200;BME280;3641;49.082;8.200;2023-04-15T09:03:33;99495.19;;;9.26;66.02
7200;BME280;3641;49.082;8.200;2023-04-15T09:06:00;99496.53;;;9.37;65.26
7200;BME280;3641;49.082;8.200;2023-04-15T09:08:26;99495.13;;;9.19;66.85
7200;BME280;3641;49.082;8.200;2023-04-15T09:10:54;99500.50;;;9.41;65.97
7200;BME280;3641;49.082;8.200;2023-04-15T09:13:20;99493.72;;;9.30;66.16
7200;BME280;3641;49.082;8.200;2023-04-15T09:15:47;99498.94;;;9.53;65.65
7200;BME280;3641;49.082;8.200;2023-04-15T09:18:26;99496.06;;;9.68;65.83
7200;BME280;3641;49.082;8.200;2023-04-15T09:20:53;99496.19;;;9.81;64.95
7200;BME280;3641;49.082;8.200;2023-04-15T09:23:19;99501.69;;;9.95;64.40
7200;BME280;3641;49.082;8.200;2023-04-15T09:25:47;99504.84;;;9.98;64.60
7200;BME280;3641;49.082;8.200;2023-04-15T09:28:23;99509.03;;;9.94;65.10
7200;BME280;3641;49.082;8.200;2023-04-15T09:30:51;99515.81;;;10.05;64.50
7200;BME280;3641;49.082;8.200;2023-04-15T09:33:17;99520.47;;;10.18;64.24
7200;BME280;3641;49.082;8.200;2023-04-15T09:35:55;99507.06;;;10.23;64.06
7200;BME280;3641;49.082;8.200;2023-04-15T09:38:22;99517.09;;;10.23;63.59
7200;BME280;3641;49.082;8.200;2023-04-15T09:40:48;99526.38;;;10.28;63.24
7200;BME280;3641;49.082;8.200;2023-04-15T09:43:16;99523.72;;;10.42;63.66
7200;BME280;3641;49.082;8.200;2023-04-15T09:45:46;99520.97;;;10.42;64.03
7200;BME280;3641;49.082;8.200;2023-04-15T09:48:15;99521.84;;;10.42;63.88
7200;BME280;3641;49.082;8.200;2023-04-15T09:50:42;99524.59;;;10.49;64.41
7200;BME280;3641;49.082;8.200;2023-04-15T09:53:09;99529.44;;;10.60;63.66
7200;BME280;3641;49.082;8.200;2023-04-15T09:55:36;99533.25;;;10.66;63.59
7200;BME280;3641;49.082;8.200;2023-04-15T09:58:07;99533.25;;;10.66;64.07
7200;BME280;3641;49.082;8.200;2023-04-15T10:00:36;99528.44;;;10.68;63.74
7200;BME280;3641;49.082;8.200;2023-04-15T10:03:04;99527.16;;;10.70;63.56
7200;BME280;3641;49.082;8.200;2023-04-15T10:05:31;99533.91;;;10.75;63.88
7200;BME280;3641;49.082;8.200;2023-04-15T10:07:59;99529.72;;;10.79;64.06
7200;BME280;3641;49.082;8.200;2023-04-15T10:10:26;99527.59;;;10.81;63.84
7200;BME280;3641;49.082;8.200;2023-04-15T10:12:54;99529.50;;;10.87;63.46
7200;BME280;3641;49.082;8.200;2023-04-15T10:15:22;99533.75;;;10.96;62.96
7200;BME280;3641;49.082;8.200;2023-04-15T10:17:52;99530.78;;;11.04;63.58
7200;BME280;3641;49.082;8.200;2023-04-15T10:20:21;99533.13;;;11.14;62.76
7200;BME280;3641;49.082;8.200;2023-04-15T10:22:48;99532.28;;;11.20;61.25
7200;BME280;3641;49.082;8.200;2023-04-15T10:25:17;99535.00;;;11.27;61.85
7200;BME280;3641;49.082;8.200;2023-04-15T10:27:44;99528.69;;;11.40;61.31
7200;BME280;3641;49.082;8.200;2023-04-15T10:30:12;99535.63;;;11.49;61.38
7200;BME280;3641;49.082;8.200;2023-04-15T10:32:40;99534.78;;;11.62;60.71
7200;BME280;3641;49.082;8.200;2023-04-15T10:35:09;99540.44;;;11.67;59.91
7200;BME280;3641;49.082;8.200;2023-04-15T10:37:37;99542.78;;;11.63;61.79
7200;BME280;3641;49.082;8.200;2023-04-15T10:40:31;99540.84;;;11.71;60.35
7200;BME280;3641;49.082;8.200;2023-04-15T10:42:59;99540.63;;;11.86;60.75
7200;BME280;3641;49.082;8.200;2023-04-15T10:45:28;99545.69;;;11.95;59.85
7200;BME280;3641;49.082;8.200;2023-04-15T10:47:57;99546.50;;;11.89;60.78
7200;BME280;3641;49.082;8.200;2023-04-15T10:50:29;99545.47;;;11.97;57.42
7200;BME280;3641;49.082;8.200;2023-04-15T10:52:57;99547.31;;;12.16;58.06
7200;BME280;3641;49.082;8.200;2023-04-15T10:55:25;99557.19;;;12.24;55.43
7200;BME280;3641;49.082;8.200;2023-04-15T10:57:53;99553.69;;;12.49;53.29
7200;BME280;3641;49.082;8.200;2023-04-15T11:00:23;99556.38;;;12.62;52.50
7200;BME280;3641;49.082;8.200;2023-04-15T11:02:52;99565.13;;;12.84;49.44
7200;BME280;3641;49.082;8.200;2023-04-15T11:05:20;99565.78;;;12.80;51.18
7200;BME280;3641;49.082;8.200;2023-04-15T11:07:51;99563.78;;;12.94;51.74
7200;BME280;3641;49.082;8.200;2023-04-15T11:10:51;99562.59;;;13.15;50.13
7200;BME280;3641;49.082;8.200;2023-04-15T11:13:26;99563.94;;;13.05;51.36
7200;BME280;3641;49.082;8.200;2023-04-15T11:16:00;99559.97;;;13.26;51.22
7200;BME280;3641;49.082;8.200;2023-04-15T11:18:32;99572.44;;;13.22;48.80
7200;BME280;3641;49.082;8.200;2023-04-15T11:21:01;99561.22;;;13.31;48.18
7200;BME280;3641;49.082;8.200;2023-04-15T11:23:34;99566.50;;;13.25;48.38
7200;BME280;3641;49.082;8.200;2023-04-15T11:26:02;99563.38;;;13.22;48.75
7200;BME280;3641;49.082;8.200;2023-04-15T11:28:30;99564.63;;;13.26;46.98
7200;BME280;3641;49.082;8.200;2023-04-15T11:30:57;99564.44;;;13.21;48.00
7200;BME280;3641;49.082;8.200;2023-04-15T11:33:24;99568.81;;;13.29;47.86
7200;BME280;3641;49.082;8.200;2023-04-15T11:35:51;99570.56;;;13.23;49.67
7200;BME280;3641;49.082;8.200;2023-04-15T11:38:18;99572.22;;;13.24;50.96
7200;BME280;3641;49.082;8.200;2023-04-15T11:40:47;99576.56;;;13.38;49.41
7200;BME280;3641;49.082;8.200;2023-04-15T11:43:15;99575.97;;;13.36;50.44
7200;BME280;3641;49.082;8.200;2023-04-15T11:45:50;99576.31;;;13.47;48.43
7200;BME280;3641;49.082;8.200;2023-04-15T11:48:19;99576.50;;;13.70;49.81
7200;BME280;3641;49.082;8.200;2023-04-15T11:50:52;99584.06;;;13.75;47.31
7200;BME280;3641;49.082;8.200;2023-04-15T11:53:19;99577.41;;;13.64;49.17
7200;BME280;3641;49.082;8.200;2023-04-15T11:55:48;99580.84;;;13.59;50.11
7200;BME280;3641;49.082;8.200;2023-04-15T11:58:17;99578.34;;;13.76;47.15
7200;BME280;3641;49.082;8.200;2023-04-15T12:00:48;99586.56;;;13.58;50.52
7200;BME280;3641;49.082;8.200;2023-04-15T12:03:21;99586.09;;;13.61;51.44
7200;BME280;3641;49.082;8.200;2023-04-15T12:06:19;99586.38;;;13.78;50.81
7200;BME280;3641;49.082;8.200;2023-04-15T12:09:02;99590.72;;;13.86;47.45
7200;BME280;3641;49.082;8.200;2023-04-15T12:11:35;99584.25;;;13.98;46.93
7200;BME280;3641;49.082;8.200;2023-04-15T12:14:07;99591.09;;;13.89;49.59
7200;BME280;3641;49.082;8.200;2023-04-15T12:16:35;99594.47;;;13.91;49.54
7200;BME280;3641;49.082;8.200;2023-04-15T12:19:05;99596.56;;;14.14;46.15
7200;BME280;3641;49.082;8.200;2023-04-15T12:21:34;99597.84;;;14.12;48.76
7200;BME280;3641;49.082;8.200;2023-04-15T12:24:01;99603.63;;;14.04;47.74
7200;BME280;3641;49.082;8.200;2023-04-15T12:26:34;99603.25;;;14.00;43.35
7200;BME280;3641;49.082;8.200;2023-04-15T12:29:02;99612.31;;;14.01;46.40
7200;BME280;3641;49.082;8.200;2023-04-15T12:31:29;99606.47;;;14.15;47.72
7200;BME280;3641;49.082;8.200;2023-04-15T12:33:57;99610.53;;;14.31;44.98
7200;BME280;3641;49.082;8.200;2023-04-15T12:36:24;99610.38;;;14.45;43.82
7200;BME280;3641;49.082;8.200;2023-04-15T12:38:51;99612.88;;;14.28;46.28
7200;BME280;3641;49.082;8.200;2023-04-15T12:41:19;99613.13;;;14.45;45.19
7200;BME280;3641;49.082;8.200;2023-04-15T12:43:47;99617.09;;;14.67;45.49
7200;BME280;3641;49.082;8.200;2023-04-15T12:46:13;99614.91;;;14.76;46.72
7200;BME280;3641;49.082;8.200;2023-04-15T12:48:41;99615.94;;;14.75;44.72
7200;BME280;3641;49.082;8.200;2023-04-15T12:51:07;99624.66;;;14.72;43.63
7200;BME280;3641;49.082;8.200;2023-04-15T12:53:34;99628.84;;;14.38;43.75
7200;BME280;3641;49.082;8.200;2023-04-15T12:56:01;99625.63;;;14.22;46.12
7200;BME280;3641;49.082;8.200;2023-04-15T12:58:28;99633.53;;;14.12;46.67
7200;BME280;3641;49.082;8.200;2023-04-15T13:00:55;99632.09;;;14.09;49.08
7200;BME280;3641;49.082;8.200;2023-04-15T13:03:22;99638.84;;;14.07;50.64
7200;BME280;3641;49.082;8.200;2023-04-15T13:05:48;99639.50;;;14.09;50.83
7200;BME280;3641;49.082;8.200;2023-04-15T13:08:15;99638.53;;;13.96;45.98
7200;BME280;3641;49.082;8.200;2023-04-15T13:10:42;99635.41;;;13.93;46.24
7200;BME280;3641;49.082;8.200;2023-04-15T13:13:08;99635.94;;;14.02;47.74
7200;BME280;3641;49.082;8.200;2023-04-15T13:15:35;99634.16;;;14.14;48.06
7200;BME280;3641;49.082;8.200;2023-04-15T13:18:05;99638.97;;;14.19;44.59
7200;BME280;3641;49.082;8.200;2023-04-15T13:20:31;99639.34;;;14.22;45.52
7200;BME280;3641;49.082;8.200;2023-04-15T13:22:58;99640.56;;;14.26;44.93
7200;BME280;3641;49.082;8.200;2023-04-15T13:25:25;99647.44;;;14.17;44.72
7200;BME280;3641;49.082;8.200;2023-04-15T13:27:52;99647.72;;;14.09;46.17
7200;BME280;3641;49.082;8.200;2023-04-15T13:30:18;99644.56;;;14.05;45.35
7200;BME280;3641;49.082;8.200;2023-04-15T13:32:45;99658.03;;;13.88;46.13